createdAt,value
2017-05-12T00:00:02.531Z,0
2017-05-12T00:05:02.794Z,0
2017-05-12T00:10:02.469Z,0
2017-05-12T00:15:03.114Z,0
2017-05-12T00:20:17.733Z,0
2017-05-12T00:25:03.320Z,0
2017-05-12T00:30:02.936Z,0
2017-05-12T00:35:05.616Z,0
2017-05-12T00:40:03.587Z,0
2017-05-12T00:45:03.261Z,0
2017-05-12T00:50:02.810Z,0
2017-05-12T00:55:03.449Z,0
2017-05-12T01:00:03.041Z,0
2017-05-12T01:05:02.831Z,0
2017-05-12T01:10:03.448Z,0
2017-05-12T01:15:02.999Z,0
2017-05-12T01:20:02.593Z,0
2017-05-12T01:25:18.285Z,0
2017-05-12T01:30:02.798Z,0
2017-05-12T01:35:05.460Z,0
2017-05-12T01:40:03.031Z,0
2017-05-12T01:45:02.671Z,0
2017-05-12T01:50:02.510Z,0
2017-05-12T01:55:03.376Z,0
2017-05-12T02:00:02.936Z,0
2017-05-12T02:05:02.523Z,0
2017-05-12T02:10:03.248Z,0
2017-05-12T02:15:02.984Z,0
2017-05-12T02:20:02.793Z,0
2017-05-12T02:25:03.423Z,0
2017-05-12T02:30:03.338Z,0
2017-05-12T02:35:03.111Z,0
2017-05-12T02:40:02.807Z,0
2017-05-12T02:45:03.467Z,0
2017-05-12T02:50:03.081Z,0
2017-05-12T02:55:02.827Z,0
2017-05-12T03:00:02.524Z,0
2017-05-12T03:05:03.151Z,0
2017-05-12T03:10:02.779Z,0
2017-05-12T03:15:02.492Z,1
2017-05-12T03:20:03.187Z,2
2017-05-12T03:25:02.925Z,6
2017-05-12T03:30:02.560Z,12
2017-05-12T03:35:03.346Z,24
2017-05-12T03:40:03.041Z,35
2017-05-12T03:45:02.617Z,45
2017-05-12T03:50:03.277Z,54
2017-05-12T03:55:02.886Z,59
2017-05-12T04:00:02.443Z,67
2017-05-12T04:05:03.201Z,107
2017-05-12T04:10:03.009Z,343
2017-05-12T04:15:02.773Z,409
2017-05-12T04:20:03.394Z,440
2017-05-12T04:25:02.993Z,571
2017-05-12T04:30:03.191Z,677
2017-05-12T04:35:02.921Z,712
2017-05-12T04:40:02.667Z,937
2017-05-12T04:45:03.394Z,1000
2017-05-12T04:50:03.163Z,1000
2017-05-12T04:55:02.896Z,1000
2017-05-12T05:00:02.563Z,1000
2017-05-12T05:05:03.178Z,2000
2017-05-12T05:10:02.908Z,2000
2017-05-12T05:15:02.506Z,2000
2017-05-12T05:20:03.249Z,2000
2017-05-12T05:25:02.991Z,2000
2017-05-12T05:30:02.735Z,2000
2017-05-12T05:35:03.320Z,2000
2017-05-12T05:40:03.140Z,3000
2017-05-12T05:45:02.867Z,4000
2017-05-12T05:50:02.555Z,4000
2017-05-12T05:55:03.186Z,4000
2017-05-12T06:00:02.791Z,3000
2017-05-12T06:05:02.527Z,2000
2017-05-12T06:10:03.331Z,2000
2017-05-12T06:15:02.959Z,4000
2017-05-12T06:20:02.539Z,2000
2017-05-12T06:25:03.224Z,2000
2017-05-12T06:30:02.852Z,3000
2017-05-12T06:35:02.592Z,4000
2017-05-12T06:40:03.423Z,4000
2017-05-12T06:45:03.130Z,4000
2017-05-12T06:50:02.684Z,2000
2017-05-12T06:55:03.361Z,3000
2017-05-12T07:00:03.117Z,3000
2017-05-12T07:05:02.746Z,4000
2017-05-12T07:10:03.482Z,5000
2017-05-12T07:15:03.223Z,6000
2017-05-12T07:20:02.829Z,6000
2017-05-12T07:25:02.458Z,6000
2017-05-12T07:30:03.211Z,3000
2017-05-12T07:35:02.894Z,3000
2017-05-12T07:40:02.608Z,4000
2017-05-12T07:45:03.336Z,4000
2017-05-12T07:50:03.135Z,4000
2017-05-12T07:55:02.696Z,4000
2017-05-12T08:00:03.409Z,8000
2017-05-12T08:05:03.013Z,7000
2017-05-12T08:10:02.694Z,6000
2017-05-12T08:15:03.394Z,5000
2017-05-12T08:20:03.073Z,6000
2017-05-12T08:25:02.817Z,11000
2017-05-12T08:30:02.589Z,29000
2017-05-12T08:35:03.256Z,18000
2017-05-12T08:40:02.987Z,26000
2017-05-12T08:45:02.698Z,35000
2017-05-12T08:50:03.440Z,13000
2017-05-12T08:55:03.284Z,6000
2017-05-12T09:00:02.875Z,7000
2017-05-12T09:05:02.482Z,15000
2017-05-12T09:10:03.196Z,15000
2017-05-12T09:15:02.877Z,9000
2017-05-12T09:20:02.708Z,11000
2017-05-12T09:25:03.476Z,11000
2017-05-12T09:30:03.021Z,50000
2017-05-12T09:35:02.635Z,28000
2017-05-12T09:40:03.294Z,56000
2017-05-12T09:45:02.937Z,27000
2017-05-12T09:50:02.727Z,57000
2017-05-12T09:55:03.428Z,45000
2017-05-12T10:00:03.001Z,21000
2017-05-12T10:05:02.753Z,56000
2017-05-12T10:10:03.350Z,22000
2017-05-12T10:15:02.940Z,20000
2017-05-12T10:20:02.736Z,8000
2017-05-12T10:25:03.410Z,9000
2017-05-12T10:30:03.174Z,6000
2017-05-12T10:35:02.860Z,5000
2017-05-12T10:40:03.064Z,6000
2017-05-12T10:45:02.729Z,6000
2017-05-12T10:50:02.489Z,7000
2017-05-12T10:55:03.091Z,5000
2017-05-12T11:00:02.965Z,5000
2017-05-12T11:05:02.666Z,8000
2017-05-12T11:10:02.843Z,7000
2017-05-12T11:15:03.107Z,9000
2017-05-12T11:20:02.848Z,10000
2017-05-12T11:25:02.526Z,52000
2017-05-12T11:30:02.683Z,52000
2017-05-12T11:35:02.563Z,32000
2017-05-12T11:40:02.605Z,53000
2017-05-12T11:45:02.739Z,20000
2017-05-12T11:50:02.526Z,22000
2017-05-12T11:55:03.377Z,51000
2017-05-12T12:00:02.560Z,24000
2017-05-12T12:05:03.393Z,49000
2017-05-12T12:10:03.003Z,51000
2017-05-12T12:15:03.535Z,50000
2017-05-12T12:20:02.810Z,53000
2017-05-12T12:25:03.203Z,54000
2017-05-12T12:30:02.579Z,55000
2017-05-12T12:35:02.614Z,53000
2017-05-12T12:40:02.767Z,52000
2017-05-12T12:45:03.203Z,12000
2017-05-12T12:50:03.425Z,57000
2017-05-12T12:55:02.716Z,17000
2017-05-12T13:00:02.983Z,12000
2017-05-12T13:05:02.769Z,19000
2017-05-12T13:10:03.461Z,11000
2017-05-12T13:15:02.964Z,37000
2017-05-12T13:20:02.909Z,33000
2017-05-12T13:25:03.458Z,22000
2017-05-12T13:30:03.405Z,7000
2017-05-12T13:35:03.456Z,13000
2017-05-12T13:40:02.473Z,25000
2017-05-12T13:45:02.772Z,8000
2017-05-12T13:50:02.986Z,11000
2017-05-12T13:55:02.966Z,33000
2017-05-12T14:00:02.947Z,12000
2017-05-12T14:05:03.255Z,37000
2017-05-12T14:10:02.820Z,37000
2017-05-12T14:15:02.792Z,16000
2017-05-12T14:20:03.301Z,34000
2017-05-12T14:25:02.893Z,30000
2017-05-12T14:30:03.291Z,32000
2017-05-12T14:35:02.810Z,15000
2017-05-12T14:40:03.034Z,33000
2017-05-12T14:45:03.355Z,32000
2017-05-12T14:50:03.208Z,35000
2017-05-12T14:55:03.074Z,33000
2017-05-12T15:00:03.144Z,10000
2017-05-12T15:05:02.860Z,20000
2017-05-12T15:10:03.241Z,8000
2017-05-12T15:15:02.611Z,20000
2017-05-12T15:20:02.952Z,28000
2017-05-12T15:25:03.424Z,20000
2017-05-12T15:30:03.322Z,21000
2017-05-12T15:35:02.881Z,10000
2017-05-12T15:40:02.753Z,12000
2017-05-12T15:45:03.236Z,7000
2017-05-12T15:50:03.190Z,24000
2017-05-12T15:55:03.412Z,7000
2017-05-12T16:00:03.089Z,5000
2017-05-12T16:05:02.535Z,5000
2017-05-12T16:10:02.590Z,4000
2017-05-12T16:15:03.349Z,5000
2017-05-12T16:20:03.136Z,5000
2017-05-12T16:25:03.052Z,5000
2017-05-12T16:30:03.098Z,5000
2017-05-12T16:35:02.645Z,7000
2017-05-12T16:40:03.393Z,6000
2017-05-12T16:45:03.090Z,6000
2017-05-12T16:50:02.766Z,6000
2017-05-12T16:55:03.376Z,4000
2017-05-12T17:00:03.084Z,3000
2017-05-12T17:05:02.697Z,3000
2017-05-12T17:10:03.427Z,3000
2017-05-12T17:15:03.003Z,2000
2017-05-12T17:20:02.632Z,2000
2017-05-12T17:25:03.204Z,2000
2017-05-12T17:30:02.972Z,2000
2017-05-12T17:35:02.636Z,2000
2017-05-12T17:40:03.391Z,6000
2017-05-12T17:45:03.091Z,5000
2017-05-12T17:50:02.684Z,4000
2017-05-12T17:55:03.439Z,1000
2017-05-12T18:00:03.117Z,1000
2017-05-12T18:05:02.720Z,1000
2017-05-12T18:10:03.400Z,1000
2017-05-12T18:15:03.209Z,868
2017-05-12T18:20:03.060Z,737
2017-05-12T18:25:03.123Z,636
2017-05-12T18:30:02.845Z,514
2017-05-12T18:35:02.667Z,401
2017-05-12T18:40:02.574Z,286
2017-05-12T18:45:03.446Z,157
2017-05-12T18:50:02.595Z,133
2017-05-12T18:55:02.519Z,122
2017-05-12T19:00:02.829Z,129
2017-05-12T19:05:02.598Z,66
2017-05-12T19:10:02.522Z,62
2017-05-12T19:15:03.144Z,45
2017-05-12T19:20:02.828Z,43
2017-05-12T19:25:02.524Z,41
2017-05-12T19:30:03.297Z,34
2017-05-12T19:35:03.123Z,16
2017-05-12T19:40:03.098Z,7
2017-05-12T19:45:02.899Z,3
2017-05-12T19:50:02.537Z,2
2017-05-12T19:55:03.463Z,0
2017-05-12T20:00:03.094Z,0
2017-05-12T20:05:02.800Z,0
2017-05-12T20:10:02.598Z,0
2017-05-12T20:15:03.393Z,0
2017-05-12T20:20:03.069Z,0
2017-05-12T20:25:02.789Z,0
2017-05-12T20:30:02.491Z,0
2017-05-12T20:35:03.085Z,0
2017-05-12T20:40:02.725Z,0
2017-05-12T20:45:03.367Z,0
2017-05-12T20:50:02.999Z,0
2017-05-12T20:55:02.700Z,0
2017-05-12T21:00:03.531Z,0
2017-05-12T21:05:03.116Z,0
2017-05-12T21:10:02.852Z,0
2017-05-12T21:15:03.418Z,0
2017-05-12T21:20:03.145Z,0
2017-05-12T21:25:02.762Z,0
2017-05-12T21:30:02.738Z,0
2017-05-12T21:35:02.522Z,0
2017-05-12T21:40:03.242Z,0
2017-05-12T21:45:02.951Z,0
2017-05-12T21:50:02.687Z,0
2017-05-12T21:55:03.386Z,0
2017-05-12T22:00:03.115Z,0
2017-05-12T22:05:02.738Z,0
2017-05-12T22:10:02.502Z,0
2017-05-12T22:15:03.190Z,0
2017-05-12T22:20:03.027Z,0
2017-05-12T22:25:02.757Z,0
2017-05-12T22:30:34.435Z,0
2017-05-12T22:35:03.100Z,0
2017-05-12T22:40:02.914Z,0
2017-05-12T22:45:02.668Z,0
2017-05-12T22:50:03.341Z,0
2017-05-12T22:55:02.850Z,0
2017-05-12T23:00:02.543Z,0
2017-05-12T23:05:03.318Z,0
2017-05-12T23:10:03.240Z,0
2017-05-12T23:15:02.952Z,0
2017-05-12T23:20:02.698Z,0
2017-05-12T23:25:03.519Z,0
2017-05-12T23:30:03.098Z,0
2017-05-12T23:35:02.859Z,0
2017-05-12T23:40:02.509Z,0
2017-05-12T23:45:03.274Z,0
2017-05-12T23:50:03.086Z,0
2017-05-12T23:55:02.770Z,0
